Terminal Aerodrome Forecast
Issued by NWS

Home | Current Version | Previous Version | Text Only | Print | Product List | Glossary On
Versions: 1 2 3 4 5 6 7 8 9 10 11 12 13 14
000
FTUS45 KABQ 012300
TAFFMN
TAF
KFMN 012340Z 0200/0224 24012KT P6SM VCTS SCT070CB BKN120
     FM020200 11010KT P6SM VCSH BKN060
     FM020400 09010KT P6SM BKN070
     FM020800 10010KT P6SM SCT080 BKN120
     FM021600 12005KT P6SM SCT120
     FM022100 20010KT P6SM VCTS SCT060CB BKN120=

USA.gov is the U.S. government's official web portal to all federal, state and local government web resources and services.